Time;durP1;ratioP1;P1;durP2;ratioP2;P2;SDS_P1;SDS_P2;PMS_P1;PMS_P2;Temp;Humidity;BMP_temperature;BMP_pressure;BME280_temperature;BME280_humidity;BME280_pressure;Samples;Min_cycle;Max_cycle;Signal;HPM_P1;HPM_P2
2022/01/12 00:00:42;;;;;;;17.02;8.25;;;;;;;6.23;63.32;103491.84;5022622;28;20486;-71
2022/01/12 00:03:11;;;;;;;14.45;7.93;;;;;;;6.20;63.38;103489.44;5023300;28;20050;-72
2022/01/12 00:05:39;;;;;;;15.63;7.72;;;;;;;6.20;63.34;103494.78;5022432;28;20041;-71
2022/01/12 00:08:08;;;;;;;13.98;8.25;;;;;;;6.17;63.44;103501.22;5023861;28;20046;-71
2022/01/12 00:10:36;;;;;;;17.73;7.85;;;;;;;6.18;63.29;103507.41;5022862;28;20058;-71
2022/01/12 00:13:04;;;;;;;17.30;9.13;;;;;;;6.19;63.42;103517.97;5023895;28;20053;-72
2022/01/12 00:15:32;;;;;;;15.57;8.25;;;;;;;6.19;63.49;103517.97;5023111;28;20545;-72
2022/01/12 00:17:59;;;;;;;15.07;8.30;;;;;;;6.18;63.53;103518.09;5019757;28;20513;-72
2022/01/12 00:20:28;;;;;;;14.68;7.82;;;;;;;6.15;63.63;103521.00;5020683;28;20046;-71
2022/01/12 00:22:57;;;;;;;14.70;8.38;;;;;;;6.15;63.52;103537.03;5023443;28;20088;-71
2022/01/12 00:25:31;;;;;;;13.00;8.10;;;;;;;6.13;63.61;103542.50;5022125;28;20105;-72
2022/01/12 00:33:30;;;;;;;18.45;9.40;;;;;;;6.14;63.37;103544.19;5020505;28;20037;-72
2022/01/12 00:35:59;;;;;;;15.02;8.65;;;;;;;6.11;63.43;103532.94;5021039;28;20076;-72
2022/01/12 00:38:30;;;;;;;18.70;8.85;;;;;;;6.13;63.56;103531.81;5023099;28;20145;-72
2022/01/12 00:40:58;;;;;;;15.32;8.98;;;;;;;6.11;63.63;103533.78;5022770;28;20073;-72
2022/01/12 00:43:29;;;;;;;14.63;8.40;;;;;;;6.10;63.53;103539.25;5022891;28;20050;-72
2022/01/12 00:45:57;;;;;;;16.13;8.77;;;;;;;6.11;63.62;103546.28;5022027;28;20056;-72
2022/01/12 00:48:25;;;;;;;15.68;8.93;;;;;;;6.12;63.67;103547.97;5022706;28;20038;-72
2022/01/12 00:50:53;;;;;;;17.40;8.45;;;;;;;6.12;63.92;103551.50;5022332;28;20050;-72
2022/01/12 00:53:22;;;;;;;17.75;8.68;;;;;;;6.10;63.50;103557.94;5022992;28;20046;-72
2022/01/12 00:55:50;;;;;;;16.20;9.20;;;;;;;6.10;63.72;103563.25;5021556;28;20072;-71
2022/01/12 00:58:17;;;;;;;16.58;9.73;;;;;;;6.13;63.62;103563.00;5022846;28;20046;-72
2022/01/12 01:00:45;;;;;;;16.35;8.32;;;;;;;6.10;63.29;103572.13;5021830;28;20110;-74
2022/01/12 01:03:13;;;;;;;16.48;8.27;;;;;;;6.09;63.93;103573.09;5022403;28;20054;-74
2022/01/12 01:05:41;;;;;;;15.32;8.85;;;;;;;6.08;63.26;103579.41;5022182;28;20050;-74
2022/01/12 01:08:09;;;;;;;14.10;9.43;;;;;;;6.08;63.85;103581.22;5021376;28;20070;-74
2022/01/12 01:10:46;;;;;;;16.67;8.50;;;;;;;6.10;63.90;103585.47;5022079;28;20050;-75
2022/01/12 01:13:15;;;;;;;17.52;8.93;;;;;;;6.12;63.73;103582.69;5022578;28;20045;-74
2022/01/12 01:16:00;;;;;;;14.15;8.27;;;;;;;6.09;63.36;103574.91;5021932;28;20050;-74
2022/01/12 01:26:49;;;;;;;17.60;9.52;;;;;;;6.11;63.93;103600.53;5019468;28;20533;-74
2022/01/12 01:29:17;;;;;;;16.48;9.10;;;;;;;6.13;63.64;103592.38;5021703;28;20054;-74
2022/01/12 01:31:46;;;;;;;14.68;9.40;;;;;;;6.13;63.79;103581.72;5021526;28;20414;-74
2022/01/12 01:34:15;;;;;;;13.07;8.25;;;;;;;6.11;64.09;103576.50;5014882;28;20049;-74
2022/01/12 01:36:46;;;;;;;16.77;9.43;;;;;;;6.10;64.07;103571.28;5021729;28;20058;-74
2022/01/12 01:39:15;;;;;;;15.65;9.82;;;;;;;6.11;64.09;103578.31;5015328;28;20069;-74
2022/01/12 01:41:49;;;;;;;18.92;8.95;;;;;;;6.10;64.30;103566.78;5021407;28;20141;-74
2022/01/12 01:55:30;;;;;;;16.00;8.98;;;;;;;6.13;64.43;103611.06;5019377;28;20073;-73
2022/01/12 01:57:58;;;;;;;16.17;9.80;;;;;;;6.12;64.49;103602.22;5016781;28;20459;-73
2022/01/12 02:00:31;;;;;;;15.70;8.27;;;;;;;6.08;64.47;103603.44;5020904;28;20065;-73
2022/01/12 02:03:00;;;;;;;19.73;9.95;;;;;;;6.01;64.61;103575.53;5014424;28;20069;-72
2022/01/12 02:05:29;;;;;;;13.40;8.20;;;;;;;6.08;64.69;103583.91;5020588;28;20046;-73
2022/01/12 02:07:56;;;;;;;16.60;9.07;;;;;;;6.06;64.64;103572.50;5021832;28;20042;-73
2022/01/12 02:10:24;;;;;;;17.48;9.20;;;;;;;6.06;64.89;103559.16;5021285;28;20249;-73
2022/01/12 02:12:52;;;;;;;16.83;9.90;;;;;;;6.04;64.74;103542.41;5021447;28;20050;-73
2022/01/12 02:15:23;;;;;;;17.48;10.45;;;;;;;6.03;64.91;103541.56;5020571;28;20046;-73
2022/01/12 02:18:02;;;;;;;16.45;9.73;;;;;;;6.04;64.94;103542.41;5021282;28;20120;-73
2022/01/12 02:39:48;;;;;;;18.20;9.10;;;;;;;6.04;64.41;103572.63;5023411;28;20058;-73
2022/01/12 02:40:10;;;;;;;16.25;9.50;;;;;;;6.03;64.90;103586.94;5025174;28;20057;-72
2022/01/12 02:42:42;;;;;;;16.17;9.23;;;;;;;6.03;64.93;103580.75;5025273;28;20046;-73
2022/01/12 02:50:47;;;;;;;16.77;8.77;;;;;;;6.02;64.72;103595.94;5024493;28;20050;-73
2022/01/12 02:56:02;;;;;;;15.60;10.32;;;;;;;6.03;64.83;103592.28;5022748;28;20050;-73
2022/01/12 02:58:30;;;;;;;16.05;9.00;;;;;;;6.01;64.91;103604.06;5025355;28;20057;-73
2022/01/12 03:03:42;;;;;;;17.30;10.68;;;;;;;6.01;65.07;103590.72;5023121;28;20049;-72
2022/01/12 03:06:15;;;;;;;15.73;9.50;;;;;;;5.98;64.88;103602.50;5024972;28;20352;-72
2022/01/12 03:08:43;;;;;;;18.45;10.52;;;;;;;5.99;64.88;103601.50;5023764;28;20046;-73
2022/01/12 03:11:14;;;;;;;16.33;9.80;;;;;;;6.00;65.00;103605.03;5019790;28;20046;-73
2022/01/12 03:13:43;;;;;;;19.92;10.90;;;;;;;6.00;64.93;103597.03;5024155;28;20100;-73
2022/01/12 03:16:14;;;;;;;15.23;9.80;;;;;;;6.03;64.55;103604.78;5024747;28;20038;-73
2022/01/12 03:18:42;;;;;;;16.67;9.18;;;;;;;6.02;64.68;103611.94;5022455;28;20068;-73
2022/01/12 03:21:11;;;;;;;16.63;9.68;;;;;;;6.03;64.98;103620.81;5024566;28;20434;-73
2022/01/12 03:23:40;;;;;;;14.77;9.32;;;;;;;5.93;64.41;103607.34;5024753;28;20057;-73
2022/01/12 03:26:09;;;;;;;15.80;10.15;;;;;;;6.03;64.38;103631.47;5023765;28;20042;-73
2022/01/12 03:28:41;;;;;;;18.30;10.25;;;;;;;6.02;64.30;103645.81;5023928;28;20046;-72
2022/01/12 03:31:17;;;;;;;20.65;10.68;;;;;;;6.00;64.41;103645.06;5023918;28;20068;-73
2022/01/12 03:36:55;;;;;;;17.98;10.23;;;;;;;6.02;64.28;103660.00;5009580;28;20064;-73
2022/01/12 03:39:24;;;;;;;19.20;9.70;;;;;;;6.00;64.50;103650.41;5018428;28;20081;-73
2022/01/12 03:41:52;;;;;;;19.38;10.63;;;;;;;6.03;64.22;103648.34;5023993;28;20053;-72
2022/01/12 03:44:21;;;;;;;17.23;10.13;;;;;;;6.03;64.47;103643.00;5023583;28;20038;-73
2022/01/12 03:46:52;;;;;;;18.30;9.75;;;;;;;6.02;64.37;103645.81;5017931;28;20037;-72
2022/01/12 03:49:21;;;;;;;17.85;9.90;;;;;;;6.02;64.60;103640.47;5023653;28;20054;-72
2022/01/12 03:51:50;;;;;;;17.75;10.65;;;;;;;6.03;64.73;103643.00;5023821;28;20082;-72
2022/01/12 03:54:18;;;;;;;17.50;10.32;;;;;;;6.02;64.73;103627.97;5023711;28;20042;-73
2022/01/12 03:56:46;;;;;;;18.08;10.75;;;;;;;6.02;64.77;103616.44;5020797;28;20081;-72
2022/01/12 03:59:14;;;;;;;19.05;10.43;;;;;;;6.03;64.98;103626.13;5022946;28;20046;-72
2022/01/12 04:01:43;;;;;;;23.35;10.50;;;;;;;6.04;64.84;103627.84;5023593;28;20050;-72
2022/01/12 04:04:19;;;;;;;17.75;10.15;;;;;;;6.00;65.13;103632.56;5022560;28;20402;-72
2022/01/12 04:09:43;;;;;;;17.85;9.90;;;;;;;6.01;65.11;103655.63;5023374;28;20053;-72
2022/01/12 04:12:12;;;;;;;17.73;10.43;;;;;;;5.99;65.16;103651.38;5023315;28;20046;-72
2022/01/12 04:14:40;;;;;;;17.25;10.55;;;;;;;6.00;65.26;103663.75;5023152;28;20045;-72
2022/01/12 04:17:09;;;;;;;23.38;11.68;;;;;;;5.97;65.50;103667.53;5023396;28;20081;-72
2022/01/12 04:19:37;;;;;;;16.60;10.07;;;;;;;5.97;65.19;103669.34;5022841;28;20124;-72
2022/01/12 04:23:16;;;;;;;19.30;10.23;;;;;;;5.96;65.40;103671.16;5023101;28;20069;-72
2022/01/12 04:24:55;;;;;;;18.98;10.73;;;;;;;5.96;65.53;103671.16;5019308;28;20057;-72
2022/01/12 04:27:23;;;;;;;19.90;10.95;;;;;;;5.95;65.57;103672.13;5023304;28;20076;-72
2022/01/12 04:29:51;;;;;;;23.60;11.48;;;;;;;5.95;65.65;103677.47;5022745;28;20050;-72
2022/01/12 04:32:23;;;;;;;20.10;11.48;;;;;;;5.93;65.71;103673.22;5022324;28;20073;-72
2022/01/12 04:34:52;;;;;;;22.48;10.88;;;;;;;5.93;65.83;103674.06;5021735;28;20046;-72
2022/01/12 04:37:19;;;;;;;24.30;11.70;;;;;;;5.95;65.61;103671.28;5015197;28;20049;-72
2022/01/12 04:39:47;;;;;;;18.73;10.75;;;;;;;5.94;65.76;103669.59;5021849;28;20053;-72
2022/01/12 04:42:15;;;;;;;19.58;11.23;;;;;;;5.91;65.87;103668.00;5022922;28;20077;-72
2022/01/12 04:44:45;;;;;;;20.73;11.75;;;;;;;5.95;65.39;103665.94;5022203;28;20077;-72
2022/01/12 04:47:27;;;;;;;19.45;10.93;;;;;;;5.93;65.76;103658.06;5023068;28;20039;-72
2022/01/12 04:49:57;;;;;;;22.13;11.45;;;;;;;5.93;65.78;103646.53;5021818;28;20078;-72
2022/01/12 04:52:25;;;;;;;20.38;12.40;;;;;;;5.93;65.60;103649.22;5022335;28;20057;-72
2022/01/12 04:54:52;;;;;;;21.75;11.70;;;;;;;5.93;65.97;103646.53;5021909;28;20149;-72
2022/01/12 04:57:20;;;;;;;23.20;11.65;;;;;;;5.91;65.81;103653.81;5022126;28;20052;-71
2022/01/12 05:00:03;;;;;;;20.38;11.50;;;;;;;5.94;65.76;103656.25;5020119;28;20044;-72
2022/01/12 05:08:15;;;;;;;21.30;13.20;;;;;;;5.91;66.23;103646.66;5022636;28;20046;-72
2022/01/12 05:13:30;;;;;;;21.77;11.93;;;;;;;5.92;66.18;103640.34;5022069;28;20523;-71
2022/01/12 05:15:58;;;;;;;33.05;12.45;;;;;;;5.92;66.39;103629.66;5021069;28;20132;-72
2022/01/12 05:18:26;;;;;;;22.42;13.20;;;;;;;5.93;66.03;103631.38;5022050;28;20119;-73
2022/01/12 05:20:55;;;;;;;20.48;12.38;;;;;;;5.89;66.21;103624.56;5021859;28;20050;-73
2022/01/12 05:23:24;;;;;;;23.15;14.20;;;;;;;5.91;66.42;103644.00;5022225;28;20077;-72
2022/01/12 05:25:52;;;;;;;23.52;12.82;;;;;;;5.90;66.42;103655.63;5021679;28;20054;-72
2022/01/12 05:28:21;;;;;;;21.98;12.52;;;;;;;5.86;66.42;103641.66;5021917;28;20053;-72
2022/01/12 05:30:49;;;;;;;20.83;11.95;;;;;;;5.91;66.48;103659.16;5021553;28;20108;-72
2022/01/12 05:33:18;;;;;;;22.08;13.13;;;;;;;5.84;66.35;103658.75;5022077;28;20364;-72
2022/01/12 05:35:46;;;;;;;22.98;13.02;;;;;;;5.87;66.42;103662.03;5021137;28;20079;-72
2022/01/12 05:38:16;;;;;;;23.10;13.10;;;;;;;5.92;66.23;103674.19;5021337;28;20105;-72
2022/01/12 05:40:47;;;;;;;22.08;12.82;;;;;;;5.87;66.46;103662.03;5020539;28;20094;-72
2022/01/12 05:43:16;;;;;;;27.23;13.35;;;;;;;5.92;66.39;103668.84;5021907;28;20081;-72
2022/01/12 05:45:45;;;;;;;23.05;12.75;;;;;;;5.91;66.56;103672.50;5022105;28;20107;-72
2022/01/12 05:50:58;;;;;;;25.60;14.35;;;;;;;5.92;66.67;103683.06;5021236;28;20046;-72
2022/01/12 05:53:27;;;;;;;26.85;15.68;;;;;;;5.92;66.70;103680.38;5021716;28;20077;-72
2022/01/12 05:55:55;;;;;;;26.88;15.38;;;;;;;5.92;66.53;103683.06;5022233;28;20050;-73
2022/01/12 05:58:23;;;;;;;23.42;14.38;;;;;;;5.91;66.54;103678.69;5021441;28;20058;-74
2022/01/12 06:00:50;;;;;;;25.40;14.80;;;;;;;5.93;66.50;103674.06;5020305;28;20049;-68
2022/01/12 06:03:18;;;;;;;28.48;15.25;;;;;;;5.93;66.67;103675.91;5021999;28;20045;-71
2022/01/12 06:05:46;;;;;;;27.30;16.33;;;;;;;5.93;66.59;103678.56;5021038;28;20049;-71
2022/01/12 06:08:14;;;;;;;25.65;14.60;;;;;;;5.93;66.60;103674.06;5020850;28;20066;-71
2022/01/12 06:10:43;;;;;;;25.42;14.25;;;;;;;5.94;67.11;103677.59;5019488;28;20065;-71
2022/01/12 06:13:10;;;;;;;31.13;15.95;;;;;;;5.92;67.05;103676.88;5019939;28;20459;-68
2022/01/12 06:15:38;;;;;;;26.63;14.95;;;;;;;5.91;66.88;103681.34;5021264;28;20111;-72
2022/01/12 06:18:06;;;;;;;26.25;16.10;;;;;;;5.91;67.08;103684.03;5020558;28;20096;-72
2022/01/12 06:20:34;;;;;;;24.13;15.13;;;;;;;5.93;66.73;103686.56;5015714;28;20053;-71
2022/01/12 06:23:02;;;;;;;27.75;16.30;;;;;;;5.92;67.04;103692.88;5020665;28;20054;-71
2022/01/12 06:25:30;;;;;;;25.73;15.07;;;;;;;5.90;66.67;103695.69;5020653;28;20050;-70
2022/01/12 06:28:20;;;;;;;26.27;16.13;;;;;;;5.89;66.91;103688.63;5021713;28;20038;-71
2022/01/12 06:33:32;;;;;;;31.70;16.35;;;;;;;5.88;66.86;103705.59;4315558;28;10000708;-71
2022/01/12 06:36:00;;;;;;;30.38;17.20;;;;;;;5.90;66.93;103708.16;5015746;28;20296;-70
2022/01/12 06:38:28;;;;;;;26.95;15.70;;;;;;;5.88;67.44;103716.25;5012950;28;20382;-73
2022/01/12 06:40:56;;;;;;;31.27;16.95;;;;;;;5.88;66.97;103721.59;5017291;28;20236;-73
2022/01/12 06:43:27;;;;;;;30.05;15.77;;;;;;;5.88;66.77;103724.28;5017491;28;20273;-71
2022/01/12 06:45:55;;;;;;;25.77;15.63;;;;;;;5.86;67.19;103723.53;5016452;28;20165;-71
2022/01/12 06:48:23;;;;;;;32.13;17.08;;;;;;;5.86;67.24;103736.88;5008369;28;20046;-70
2022/01/12 06:50:51;;;;;;;30.65;16.08;;;;;;;5.87;67.18;103743.91;5017454;28;20177;-71
2022/01/12 06:53:19;;;;;;;27.52;16.30;;;;;;;5.85;66.96;103749.38;5017222;28;20714;-69
2022/01/12 06:55:47;;;;;;;35.50;18.00;;;;;;;5.86;67.11;103753.75;5017563;28;20050;-72
2022/01/12 06:58:14;;;;;;;29.02;16.05;;;;;;;5.86;67.33;103750.22;5016518;28;20081;-72
2022/01/12 07:00:44;;;;;;;34.13;16.40;;;;;;;5.84;67.26;103745.00;5017502;28;20077;-73
2022/01/12 07:03:12;;;;;;;27.45;16.55;;;;;;;5.85;67.20;103743.19;5018053;28;20072;-73
2022/01/12 07:05:39;;;;;;;26.98;15.32;;;;;;;5.85;67.34;103749.38;5017045;28;20053;-73
2022/01/12 07:08:07;;;;;;;30.85;17.10;;;;;;;5.83;67.50;103748.66;5015866;28;20508;-72
2022/01/12 07:10:35;;;;;;;32.95;16.00;;;;;;;5.84;67.35;103758.34;5017306;28;20061;-73
2022/01/12 07:13:03;;;;;;;27.83;15.40;;;;;;;5.85;67.57;103764.53;5018762;28;20042;-64
2022/01/12 07:15:31;;;;;;;27.77;16.15;;;;;;;5.85;67.54;103762.72;5020517;28;20069;-71
2022/01/12 07:18:04;;;;;;;31.35;17.08;;;;;;;5.83;67.25;103772.66;5020511;28;20119;-72
2022/01/12 07:20:32;;;;;;;28.48;16.35;;;;;;;5.80;67.36;103777.41;5020506;28;20073;-71
2022/01/12 07:23:00;;;;;;;30.23;17.00;;;;;;;5.82;67.45;103773.63;5025031;28;20046;-71
2022/01/12 07:25:28;;;;;;;28.98;16.45;;;;;;;5.83;67.72;103771.81;5024479;28;20050;-71
2022/01/12 07:27:56;;;;;;;30.50;16.08;;;;;;;5.82;67.51;103770.97;5023798;28;20100;-71
2022/01/12 07:30:24;;;;;;;27.05;16.83;;;;;;;5.82;67.47;103772.78;5023151;28;20049;-73
2022/01/12 07:32:52;;;;;;;27.70;16.13;;;;;;;5.82;67.42;103778.97;5024346;28;20469;-73
2022/01/12 07:35:22;;;;;;;31.13;16.83;;;;;;;5.80;67.68;103777.41;5023669;28;20049;-73
2022/01/12 07:37:50;;;;;;;28.23;16.38;;;;;;;5.83;67.68;103779.81;5023922;28;20128;-73
2022/01/12 07:40:18;;;;;;;27.98;16.92;;;;;;;5.84;67.65;103789.53;5023015;28;20057;-72
2022/01/12 07:42:47;;;;;;;29.45;16.88;;;;;;;5.84;67.70;103787.72;5023640;28;20042;-73
2022/01/12 07:45:15;;;;;;;29.13;16.60;;;;;;;5.83;67.67;103786.00;5023636;28;20526;-72
2022/01/12 07:47:43;;;;;;;34.33;17.45;;;;;;;5.84;67.73;103797.53;5022861;28;20054;-72
2022/01/12 07:50:12;;;;;;;27.35;16.77;;;;;;;5.83;67.54;103807.38;5020665;28;20046;-71
2022/01/12 07:52:41;;;;;;;33.67;16.77;;;;;;;5.87;67.68;103814.16;5022545;28;20144;-72
2022/01/12 07:55:09;;;;;;;29.38;17.30;;;;;;;5.88;67.28;103810.53;5022301;28;20050;-68
2022/01/12 07:57:37;;;;;;;31.98;16.80;;;;;;;5.88;67.80;103809.69;5023575;28;20070;-68
2022/01/12 08:00:06;;;;;;;30.23;17.55;;;;;;;5.87;67.85;103815.97;5022738;28;20160;-67
2022/01/12 08:02:34;;;;;;;30.15;17.42;;;;;;;5.88;67.83;103826.53;5023280;28;20068;-66
2022/01/12 08:05:02;;;;;;;31.30;17.40;;;;;;;5.89;67.87;103827.44;5022069;28;20119;-69
2022/01/12 08:07:35;;;;;;;30.42;17.65;;;;;;;5.88;67.64;103834.56;5022915;28;20053;-67
2022/01/12 08:10:06;;;;;;;34.10;17.25;;;;;;;5.88;68.06;103842.56;5015174;28;20037;-68
2022/01/12 08:12:34;;;;;;;30.10;17.45;;;;;;;5.89;68.21;103854.13;5023246;28;20050;-69
2022/01/12 08:15:04;;;;;;;30.80;17.45;;;;;;;5.87;67.79;103848.88;5022424;28;20042;-69
2022/01/12 08:17:32;;;;;;;29.23;17.75;;;;;;;5.88;67.95;103847.03;5022870;28;20057;-70
2022/01/12 08:20:01;;;;;;;31.33;18.20;;;;;;;5.87;68.18;103859.53;5022286;28;20042;-71
2022/01/12 08:22:29;;;;;;;30.80;18.38;;;;;;;5.87;68.06;103856.88;5023512;28;20294;-70
2022/01/12 08:24:57;;;;;;;29.75;17.40;;;;;;;5.88;68.03;103868.41;5023244;28;20081;-70
2022/01/12 08:27:26;;;;;;;32.80;18.23;;;;;;;5.87;67.96;103872.03;5023385;28;20065;-70
2022/01/12 08:29:59;;;;;;;29.63;16.92;;;;;;;5.88;68.06;103873.75;5021430;28;20085;-71
2022/01/12 08:32:27;;;;;;;34.90;19.08;;;;;;;5.87;68.21;103872.03;5022994;28;20085;-70
2022/01/12 08:34:56;;;;;;;31.98;17.95;;;;;;;5.89;68.18;103875.47;5022656;28;20077;-70
2022/01/12 08:37:24;;;;;;;29.13;17.45;;;;;;;5.87;68.07;103878.22;5023479;28;20058;-70
2022/01/12 08:39:52;;;;;;;32.83;17.90;;;;;;;5.89;68.03;103888.81;5021851;28;20060;-70
2022/01/12 08:42:21;;;;;;;27.35;17.40;;;;;;;5.87;68.33;103882.72;5023704;28;20541;-70
2022/01/12 08:44:50;;;;;;;28.65;17.15;;;;;;;5.84;68.45;103873.13;5022751;28;20074;-71
2022/01/12 08:47:18;;;;;;;30.52;18.33;;;;;;;5.88;68.33;103877.25;5023601;28;20057;-70
2022/01/12 08:49:46;;;;;;;33.63;18.48;;;;;;;6.00;67.71;103877.31;5022476;28;20137;-71
2022/01/12 08:52:20;;;;;;;32.35;17.63;;;;;;;6.15;67.49;103874.31;5023311;28;20054;-70
2022/01/12 08:54:47;;;;;;;31.45;17.50;;;;;;;6.31;66.90;103871.31;5022180;28;20038;-70
2022/01/12 08:57:15;;;;;;;33.33;18.17;;;;;;;6.44;66.48;103873.88;5022310;28;20046;-70
2022/01/12 08:59:44;;;;;;;28.73;17.13;;;;;;;6.61;66.04;103877.91;5021985;28;20196;-70
2022/01/12 09:02:14;;;;;;;35.75;18.80;;;;;;;6.76;65.24;103879.34;5023129;28;20120;-70
2022/01/12 09:04:43;;;;;;;29.70;17.02;;;;;;;6.91;64.95;103882.63;5021650;28;20057;-69
2022/01/12 09:07:11;;;;;;;27.90;16.45;;;;;;;6.96;64.67;103873.22;5022140;28;20157;-70
2022/01/12 09:09:39;;;;;;;31.85;17.33;;;;;;;7.16;63.75;103877.81;5021965;28;20050;-70
2022/01/12 09:12:08;;;;;;;32.40;17.27;;;;;;;7.26;63.72;103869.03;5022119;28;20104;-69
2022/01/12 09:14:36;;;;;;;32.45;17.67;;;;;;;7.38;63.78;103868.88;5019764;28;20129;-70
2022/01/12 09:17:12;;;;;;;35.20;20.42;;;;;;;7.49;63.46;103886.72;5019213;28;20046;-70
2022/01/12 09:19:41;;;;;;;33.00;17.93;;;;;;;7.49;63.23;103894.75;5020639;28;20073;-70
2022/01/12 09:22:10;;;;;;;40.97;20.25;;;;;;;7.43;64.57;103903.28;5022628;28;20320;-69
2022/01/12 09:24:38;;;;;;;47.20;23.52;;;;;;;7.33;65.19;103905.84;5022382;28;20046;-68
2022/01/12 09:27:06;;;;;;;48.00;23.10;;;;;;;7.23;66.37;103912.06;5021558;28;20050;-68
2022/01/12 09:29:34;;;;;;;48.10;24.40;;;;;;;7.25;65.43;103921.69;5018649;28;20167;-68
2022/01/12 09:32:02;;;;;;;48.00;23.58;;;;;;;7.37;65.25;103928.72;5021346;28;20080;-69
2022/01/12 09:34:30;;;;;;;46.40;23.25;;;;;;;7.46;65.15;103925.28;5021187;28;20065;-68
2022/01/12 09:36:59;;;;;;;46.55;21.52;;;;;;;7.51;64.22;103936.47;5022168;28;20431;-68
2022/01/12 09:39:27;;;;;;;43.45;21.85;;;;;;;7.50;63.88;103924.06;5020633;28;20042;-68
2022/01/12 09:41:55;;;;;;;46.95;24.23;;;;;;;7.57;63.95;103927.06;5022359;28;20092;-68
2022/01/12 09:44:29;;;;;;;41.05;21.90;;;;;;;7.60;63.93;103934.00;5021153;28;20049;-69
2022/01/12 09:46:57;;;;;;;46.92;22.45;;;;;;;7.63;63.71;103936.41;5022018;28;20049;-68
2022/01/12 09:49:25;;;;;;;39.38;21.25;;;;;;;7.68;63.62;103935.06;5021366;28;20121;-69
2022/01/12 09:51:55;;;;;;;47.40;22.73;;;;;;;7.66;64.92;103931.66;5021972;28;20046;-68
2022/01/12 09:54:24;;;;;;;47.80;22.92;;;;;;;7.57;65.23;103934.25;5021107;28;20127;-68
2022/01/12 09:56:53;;;;;;;49.83;22.98;;;;;;;7.58;64.79;103933.28;5021088;28;20042;-67
2022/01/12 09:59:21;;;;;;;44.10;23.90;;;;;;;7.47;64.79;103923.44;5021043;28;20042;-66
2022/01/12 10:01:50;;;;;;;45.50;22.92;;;;;;;7.62;65.07;103935.56;5021847;28;20053;-67
2022/01/12 10:04:20;;;;;;;45.63;23.08;;;;;;;7.71;64.64;103936.63;5020869;28;20046;-66
2022/01/12 10:06:50;;;;;;;43.20;22.02;;;;;;;7.74;63.94;103944.41;5021848;28;20046;-67
2022/01/12 10:09:25;;;;;;;45.03;21.83;;;;;;;7.75;64.15;103946.13;5021423;28;20053;-67
2022/01/12 10:11:55;;;;;;;45.35;22.83;;;;;;;7.79;64.34;103942.19;5022389;28;20057;-67
2022/01/12 10:14:23;;;;;;;44.35;21.60;;;;;;;7.81;63.40;103951.81;5018625;28;20045;-66
2022/01/12 10:16:53;;;;;;;37.80;21.75;;;;;;;7.79;64.12;103956.44;5018237;28;20519;-67
2022/01/12 10:19:28;;;;;;;42.08;22.35;;;;;;;7.84;64.42;103948.88;5020224;28;20403;-68
2022/01/12 10:21:56;;;;;;;58.53;22.05;;;;;;;7.85;64.09;103968.47;5022072;28;20042;-68
2022/01/12 10:24:27;;;;;;;58.63;22.02;;;;;;;7.80;64.38;103966.19;5021053;28;20068;-67
2022/01/12 10:26:56;;;;;;;60.90;22.50;;;;;;;7.79;64.68;103955.59;5021866;28;20050;-67
2022/01/12 10:29:26;;;;;;;58.00;20.85;;;;;;;7.61;64.95;103960.63;5021168;28;20077;-67
2022/01/12 10:31:56;;;;;;;49.25;20.90;;;;;;;7.49;65.61;103951.78;5020526;28;20053;-67
2022/01/12 10:34:25;;;;;;;47.20;21.58;;;;;;;7.34;66.56;103947.69;5019567;28;20060;-66
2022/01/12 10:36:54;;;;;;;43.00;20.20;;;;;;;7.21;66.79;103948.81;4668070;28;9999845;-68
2022/01/12 10:39:26;;;;;;;44.13;21.33;;;;;;;7.08;67.57;103947.09;5017158;28;20320;-68
2022/01/12 10:41:57;;;;;;;39.85;21.85;;;;;;;7.02;67.69;103954.78;5018277;28;20409;-68
2022/01/12 10:44:28;;;;;;;55.20;22.98;;;;;;;6.91;67.98;103952.97;5017804;28;20534;-68
2022/01/12 10:47:11;;;;;;;43.20;22.13;;;;;;;6.82;68.19;103964.41;5017508;28;20054;-68
2022/01/12 10:49:40;;;;;;;40.55;19.67;;;;;;;6.77;68.81;103959.41;5016783;28;20069;-68
2022/01/12 10:52:11;;;;;;;39.45;21.00;;;;;;;6.70;69.03;103952.84;5018112;28;20075;-68
2022/01/12 10:54:44;;;;;;;38.25;21.20;;;;;;;6.67;68.94;103961.09;5017538;28;20049;-69
2022/01/12 10:57:25;;;;;;;39.83;20.52;;;;;;;6.65;69.00;103964.88;5021069;28;20080;-68
2022/01/12 11:00:19;;;;;;;44.78;20.77;;;;;;;6.59;69.08;103962.66;5019892;28;20141;-68
2022/01/12 11:02:49;;;;;;;38.50;20.60;;;;;;;6.61;69.53;103958.91;5020672;28;20073;-68
2022/01/12 11:05:18;;;;;;;37.20;20.20;;;;;;;6.81;69.03;103979.59;5020236;28;20088;-67
2022/01/12 11:07:46;;;;;;;35.08;19.52;;;;;;;6.99;68.24;103973.72;5021046;28;20423;-68
2022/01/12 11:10:15;;;;;;;40.38;19.38;;;;;;;7.16;67.72;103967.88;5020161;28;20110;-68
2022/01/12 11:12:48;;;;;;;38.25;18.92;;;;;;;7.31;67.01;103958.63;5024712;28;20054;-67
2022/01/12 11:15:18;;;;;;;35.13;18.85;;;;;;;7.45;66.43;103958.38;5023694;28;20077;-67
2022/01/12 11:17:47;;;;;;;30.17;16.85;;;;;;;7.63;65.35;103960.50;5024669;28;20041;-67
2022/01/12 11:20:18;;;;;;;34.30;18.45;;;;;;;7.77;65.34;103957.53;5023441;28;20068;-67
2022/01/12 11:22:57;;;;;;;33.03;18.13;;;;;;;7.84;64.35;103959.59;5024228;28;20054;-67
2022/01/12 11:25:26;;;;;;;28.30;16.98;;;;;;;7.96;65.15;103948.84;5023280;28;20109;-66
2022/01/12 11:28:11;;;;;;;31.83;18.77;;;;;;;8.04;64.76;103962.44;5024712;28;20077;-68
2022/01/12 11:30:43;;;;;;;31.48;16.52;;;;;;;8.03;64.85;103963.41;5014635;28;20046;-67
2022/01/12 11:33:12;;;;;;;28.17;15.82;;;;;;;7.95;64.69;103973.91;5024748;28;20069;-68
2022/01/12 11:35:43;;;;;;;29.80;17.23;;;;;;;7.80;65.80;103976.88;5022903;28;20050;-68
2022/01/12 11:38:23;;;;;;;28.15;15.70;;;;;;;7.63;65.41;103972.06;5024793;28;20112;-68
2022/01/12 11:40:54;;;;;;;24.10;14.05;;;;;;;7.48;66.35;103971.50;5024186;28;20172;-67
2022/01/12 11:43:27;;;;;;;26.08;14.93;;;;;;;7.35;66.92;103977.97;5023699;28;20056;-71
2022/01/12 11:46:05;;;;;;;25.35;13.77;;;;;;;7.27;67.18;103970.56;5022993;28;20112;-71
2022/01/12 11:48:42;;;;;;;24.90;14.00;;;;;;;7.12;67.78;103961.09;5023578;28;20053;-70
2022/01/12 11:51:10;;;;;;;22.30;13.57;;;;;;;7.15;67.47;103976.88;5024299;28;20053;-71
2022/01/12 11:53:50;;;;;;;22.63;13.77;;;;;;;7.08;68.24;103987.22;5023246;28;20081;-71
2022/01/12 11:56:21;;;;;;;24.08;13.90;;;;;;;7.01;68.51;103964.63;5023664;28;20084;-71
2022/01/12 11:58:59;;;;;;;29.08;13.40;;;;;;;6.96;68.82;103960.59;4672410;28;9999997;-71
2022/01/12 12:01:43;;;;;;;22.20;12.45;;;;;;;6.93;68.94;103953.72;5007931;28;20061;-71
2022/01/12 12:04:23;;;;;;;22.67;13.35;;;;;;;6.91;69.04;103950.31;5015616;28;20054;-71
2022/01/12 12:07:03;;;;;;;24.92;12.80;;;;;;;6.88;69.01;103960.41;5018207;28;20054;-69
2022/01/12 12:09:39;;;;;;;23.23;12.30;;;;;;;6.82;69.37;103959.06;5012740;28;20057;-69
2022/01/12 12:12:15;;;;;;;21.38;12.05;;;;;;;6.83;69.37;103968.78;5019267;28;20050;-70
2022/01/12 12:14:47;;;;;;;21.02;11.98;;;;;;;6.79;69.20;103961.97;5018674;28;20100;-70
2022/01/12 12:17:15;;;;;;;22.25;12.75;;;;;;;6.77;69.01;103958.56;5018615;28;20514;-71
2022/01/12 12:19:43;;;;;;;19.83;12.02;;;;;;;6.78;69.14;103965.63;5018296;28;20046;-69
2022/01/12 12:22:15;;;;;;;20.98;11.55;;;;;;;6.76;69.34;103964.88;5019320;28;20080;-71
2022/01/12 12:24:44;;;;;;;21.58;12.50;;;;;;;6.78;69.46;103968.28;5018809;28;20058;-71
2022/01/12 12:27:17;;;;;;;17.23;11.85;;;;;;;6.79;69.48;103972.66;5019963;28;20053;-70
2022/01/12 12:29:48;;;;;;;19.20;10.98;;;;;;;6.94;69.10;103973.25;5015294;28;20081;-70
2022/01/12 12:32:17;;;;;;;20.55;11.43;;;;;;;7.07;67.98;103965.94;5019104;28;20056;-71
2022/01/12 12:34:46;;;;;;;18.65;11.57;;;;;;;7.24;67.87;103972.63;5018320;28;20259;-70
2022/01/12 12:37:17;;;;;;;17.60;10.52;;;;;;;7.41;66.74;103975.66;5019652;28;20066;-70
2022/01/12 12:39:46;;;;;;;17.20;10.13;;;;;;;7.61;66.72;103967.81;5016877;28;20212;-71
2022/01/12 12:42:17;;;;;;;19.58;10.05;;;;;;;7.77;65.63;103963.75;5016226;28;20046;-70
2022/01/12 12:44:49;;;;;;;19.23;11.02;;;;;;;7.91;65.76;103964.44;5018515;28;20061;-71